createdAt,value
2019-02-02T00:00:37.485Z,976.16
2019-02-02T00:01:16.463Z,976.14
2019-02-02T00:02:16.460Z,976.16
2019-02-02T00:03:16.544Z,976.11
2019-02-02T00:04:17.621Z,976.12
2019-02-02T00:05:16.667Z,976.14
2019-02-02T00:06:38.010Z,976.14
2019-02-02T00:07:16.407Z,976.14
2019-02-02T00:08:16.841Z,976.12
2019-02-02T00:09:16.395Z,976.14
2019-02-02T00:10:16.376Z,976.16
2019-02-02T00:11:16.409Z,976.20
2019-02-02T00:12:37.352Z,976.20
2019-02-02T00:13:16.347Z,976.22
2019-02-02T00:14:16.341Z,976.25
2019-02-02T00:15:16.330Z,976.20
2019-02-02T00:16:16.335Z,976.18
2019-02-02T00:17:16.318Z,976.12
2019-02-02T00:18:37.310Z,976.08
2019-02-02T00:19:16.285Z,975.97
2019-02-02T00:20:16.279Z,975.88
2019-02-02T00:21:16.287Z,975.86
2019-02-02T00:22:16.253Z,975.82
2019-02-02T00:23:16.257Z,975.83
2019-02-02T00:24:37.246Z,975.82
2019-02-02T00:25:16.267Z,975.79
2019-02-02T00:26:16.218Z,975.79
2019-02-02T00:27:16.220Z,975.74
2019-02-02T00:28:16.201Z,975.80
2019-02-02T00:29:16.197Z,975.76
2019-02-02T00:30:37.175Z,975.81
2019-02-02T00:31:16.188Z,975.82
2019-02-02T00:32:16.148Z,975.87
2019-02-02T00:33:16.139Z,975.82
2019-02-02T00:34:16.130Z,975.79
2019-02-02T00:35:16.120Z,975.83
2019-02-02T00:36:37.134Z,975.86
2019-02-02T00:37:16.128Z,975.89
2019-02-02T00:38:16.174Z,975.90
2019-02-02T00:39:16.077Z,975.95
2019-02-02T00:40:16.077Z,975.95
2019-02-02T00:41:16.082Z,975.97
2019-02-02T00:42:37.076Z,975.98
2019-02-02T00:43:16.108Z,975.97
2019-02-02T00:44:16.027Z,976.01
2019-02-02T00:45:16.032Z,975.99
2019-02-02T00:46:16.007Z,975.93
2019-02-02T00:47:16.003Z,975.96
2019-02-02T00:48:37.010Z,976.00
2019-02-02T00:49:15.982Z,975.95
2019-02-02T00:50:15.963Z,976.02
2019-02-02T00:51:15.963Z,975.97
2019-02-02T00:52:15.950Z,976.03
2019-02-02T00:53:15.946Z,976.04
2019-02-02T00:54:36.936Z,976.03
2019-02-02T00:55:15.927Z,976.02
2019-02-02T00:56:15.908Z,976.01
2019-02-02T00:57:15.889Z,976.00
2019-02-02T00:58:15.882Z,976.06
2019-02-02T00:59:15.870Z,976.05
2019-02-02T01:00:36.869Z,976.06
2019-02-02T01:01:15.845Z,976.06
2019-02-02T01:02:15.853Z,976.06
2019-02-02T01:03:15.834Z,976.05
2019-02-02T01:04:15.820Z,976.11
2019-02-02T01:05:15.824Z,976.16
2019-02-02T01:06:36.831Z,976.17
2019-02-02T01:07:15.792Z,976.22
2019-02-02T01:08:15.775Z,976.23
2019-02-02T01:09:15.773Z,976.17
2019-02-02T01:10:15.758Z,976.15
2019-02-02T01:11:15.745Z,976.19
2019-02-02T01:12:36.741Z,976.16
2019-02-02T01:13:15.770Z,976.17
2019-02-02T01:14:15.719Z,976.15
2019-02-02T01:15:15.714Z,976.04
2019-02-02T01:16:15.699Z,976.04
2019-02-02T01:17:15.684Z,976.02
2019-02-02T01:18:36.686Z,975.98
2019-02-02T01:19:15.672Z,975.94
2019-02-02T01:20:15.651Z,975.91
2019-02-02T01:21:15.647Z,975.95
2019-02-02T01:22:15.646Z,975.98
2019-02-02T01:23:15.625Z,976.00
2019-02-02T01:24:36.620Z,975.99
2019-02-02T01:25:15.612Z,975.99
2019-02-02T01:26:15.596Z,975.99
2019-02-02T01:27:15.597Z,975.97
2019-02-02T01:28:15.586Z,976.01
2019-02-02T01:29:15.568Z,975.94
2019-02-02T01:30:36.562Z,976.07
2019-02-02T01:31:15.552Z,976.11
2019-02-02T01:32:15.940Z,976.13
2019-02-02T01:33:15.531Z,976.09
2019-02-02T01:34:15.513Z,976.06
2019-02-02T01:35:15.505Z,976.08
2019-02-02T01:36:36.499Z,976.05
2019-02-02T01:37:15.483Z,976.05
2019-02-02T01:38:15.479Z,976.09
2019-02-02T01:39:15.461Z,976.10
2019-02-02T01:40:15.457Z,976.10
2019-02-02T01:41:15.449Z,976.08
2019-02-02T01:42:36.447Z,976.09
2019-02-02T01:43:15.428Z,976.06
2019-02-02T01:44:15.415Z,976.08
2019-02-02T01:45:15.399Z,976.11
2019-02-02T01:46:15.434Z,976.05
2019-02-02T01:47:15.389Z,976.09
2019-02-02T01:48:36.391Z,976.08
2019-02-02T01:49:15.371Z,976.04
2019-02-02T01:50:15.356Z,976.06
2019-02-02T01:51:15.340Z,976.02
2019-02-02T01:52:15.330Z,976.04
2019-02-02T01:53:15.359Z,976.06
2019-02-02T01:54:38.379Z,976.04
2019-02-02T01:55:15.318Z,976.00
2019-02-02T01:56:15.288Z,975.96
2019-02-02T01:57:15.285Z,975.94
2019-02-02T01:58:16.887Z,975.97
2019-02-02T01:59:15.262Z,976.08
2019-02-02T02:00:36.262Z,976.07
2019-02-02T02:01:15.242Z,976.15
2019-02-02T02:02:15.229Z,976.17
2019-02-02T02:03:15.213Z,976.18
2019-02-02T02:04:15.215Z,976.20
2019-02-02T02:05:15.194Z,976.21
2019-02-02T02:06:36.204Z,976.25
2019-02-02T02:07:15.170Z,976.24
2019-02-02T02:08:15.169Z,976.26
2019-02-02T02:09:15.154Z,976.26
2019-02-02T02:10:15.158Z,976.14
2019-02-02T02:11:15.138Z,976.05
2019-02-02T02:12:36.137Z,975.98
2019-02-02T02:13:15.112Z,975.98
2019-02-02T02:14:15.117Z,975.90
2019-02-02T02:15:15.095Z,976.00
2019-02-02T02:16:15.085Z,976.01
2019-02-02T02:17:15.084Z,976.01
2019-02-02T02:18:36.073Z,975.99
2019-02-02T02:19:15.053Z,975.98
2019-02-02T02:20:15.037Z,975.97
2019-02-02T02:21:15.034Z,975.97
2019-02-02T02:22:15.033Z,975.89
2019-02-02T02:23:15.017Z,975.88
2019-02-02T02:24:36.012Z,975.82
2019-02-02T02:25:14.998Z,975.76
2019-02-02T02:26:15.002Z,975.79
2019-02-02T02:27:14.975Z,975.83
2019-02-02T02:28:14.966Z,975.88
2019-02-02T02:29:14.959Z,975.95
2019-02-02T02:30:35.956Z,976.02
2019-02-02T02:31:14.938Z,976.00
2019-02-02T02:32:14.932Z,975.99
2019-02-02T02:33:14.916Z,975.95
2019-02-02T02:34:14.905Z,975.96
2019-02-02T02:35:14.903Z,976.00
2019-02-02T02:36:35.898Z,975.99
2019-02-02T02:37:14.992Z,976.02
2019-02-02T02:38:14.865Z,976.06
2019-02-02T02:39:14.857Z,976.09
2019-02-02T02:40:14.846Z,976.11
2019-02-02T02:41:14.841Z,976.10
2019-02-02T02:42:35.823Z,976.06
2019-02-02T02:43:14.817Z,976.09
2019-02-02T02:44:14.801Z,976.10
2019-02-02T02:45:14.798Z,976.11
2019-02-02T02:46:14.796Z,976.06
2019-02-02T02:47:14.778Z,976.02
2019-02-02T02:48:35.759Z,976.01
2019-02-02T02:49:14.761Z,976.00
2019-02-02T02:50:14.741Z,975.95
2019-02-02T02:51:14.746Z,975.92
2019-02-02T02:52:14.728Z,975.87
2019-02-02T02:53:14.734Z,975.85
2019-02-02T02:54:35.721Z,975.81
2019-02-02T02:55:14.695Z,975.78
2019-02-02T02:56:14.683Z,975.78
2019-02-02T02:57:14.677Z,975.77
2019-02-02T02:58:14.668Z,975.75
2019-02-02T02:59:14.652Z,975.72
2019-02-02T03:00:35.649Z,975.76
2019-02-02T03:01:14.641Z,975.81
2019-02-02T03:02:14.643Z,975.91
2019-02-02T03:03:14.625Z,976.08
2019-02-02T03:04:14.629Z,976.08
2019-02-02T03:05:14.604Z,976.13
2019-02-02T03:06:35.588Z,976.16
2019-02-02T03:07:14.581Z,976.14
2019-02-02T03:08:15.352Z,976.15
2019-02-02T03:09:14.549Z,976.17
2019-02-02T03:10:14.535Z,976.16
2019-02-02T03:11:14.521Z,976.16
2019-02-02T03:12:35.523Z,976.14
2019-02-02T03:13:14.508Z,976.13
2019-02-02T03:14:14.500Z,976.14
2019-02-02T03:15:14.560Z,976.13
2019-02-02T03:16:14.473Z,976.09
2019-02-02T03:17:14.468Z,976.09
2019-02-02T03:18:35.480Z,976.04
2019-02-02T03:19:14.446Z,976.03
2019-02-02T03:20:14.433Z,976.04
2019-02-02T03:21:14.435Z,976.01
2019-02-02T03:22:14.585Z,975.98
2019-02-02T03:23:14.403Z,975.95
2019-02-02T03:24:35.400Z,975.95
2019-02-02T03:25:14.639Z,975.92
2019-02-02T03:26:14.376Z,975.96
2019-02-02T03:27:14.354Z,975.91
2019-02-02T03:28:14.347Z,975.95
2019-02-02T03:29:14.352Z,975.91
2019-02-02T03:30:35.346Z,975.87
2019-02-02T03:31:14.328Z,975.86
2019-02-02T03:32:14.326Z,975.84
2019-02-02T03:33:14.310Z,975.92
2019-02-02T03:34:14.293Z,975.89
2019-02-02T03:35:14.276Z,975.90
2019-02-02T03:36:35.273Z,975.92
2019-02-02T03:37:14.276Z,975.97
2019-02-02T03:38:14.246Z,975.95
2019-02-02T03:39:14.234Z,975.94
2019-02-02T03:40:14.223Z,975.97
2019-02-02T03:41:14.219Z,976.00
2019-02-02T03:42:35.234Z,976.03
2019-02-02T03:43:14.186Z,976.10
2019-02-02T03:44:14.187Z,976.12
2019-02-02T03:45:14.177Z,976.16
2019-02-02T03:46:14.158Z,976.15
2019-02-02T03:47:14.146Z,976.14
2019-02-02T03:48:35.136Z,976.07
2019-02-02T03:49:14.139Z,976.09
2019-02-02T03:50:14.127Z,976.06
2019-02-02T03:51:14.103Z,976.13
2019-02-02T03:52:14.092Z,976.08
2019-02-02T03:53:14.078Z,976.10
2019-02-02T03:54:35.069Z,976.15
2019-02-02T03:55:14.064Z,976.14
2019-02-02T03:56:14.063Z,976.16
2019-02-02T03:57:14.039Z,976.17
2019-02-02T03:58:14.033Z,976.17
2019-02-02T03:59:14.012Z,976.13
2019-02-02T04:00:35.008Z,976.12
2019-02-02T04:01:13.999Z,976.08
2019-02-02T04:02:14.003Z,976.03
2019-02-02T04:03:13.972Z,976.01
2019-02-02T04:04:13.964Z,975.96
2019-02-02T04:05:13.959Z,975.93
2019-02-02T04:06:34.948Z,975.94
2019-02-02T04:07:13.927Z,975.86
2019-02-02T04:08:13.927Z,975.88
2019-02-02T04:09:14.140Z,975.88
2019-02-02T04:10:13.906Z,975.84
2019-02-02T04:11:13.889Z,975.85
2019-02-02T04:12:34.883Z,975.87
2019-02-02T04:13:13.868Z,975.91
2019-02-02T04:14:13.853Z,975.97
2019-02-02T04:15:13.865Z,975.97
2019-02-02T04:16:13.839Z,976.03
2019-02-02T04:17:13.821Z,976.04
2019-02-02T04:18:35.741Z,976.05
2019-02-02T04:19:13.799Z,976.04
2019-02-02T04:20:13.806Z,976.08
2019-02-02T04:21:13.771Z,976.09
2019-02-02T04:22:13.778Z,976.09
2019-02-02T04:23:13.762Z,976.04
2019-02-02T04:24:34.754Z,976.02
2019-02-02T04:25:13.740Z,976.05
2019-02-02T04:26:13.732Z,976.01
2019-02-02T04:27:13.709Z,976.02
2019-02-02T04:28:13.701Z,976.06
2019-02-02T04:29:17.724Z,976.13
2019-02-02T04:30:34.696Z,976.14
2019-02-02T04:31:13.678Z,976.20
2019-02-02T04:32:13.658Z,976.22
2019-02-02T04:33:13.653Z,976.22
2019-02-02T04:34:13.645Z,976.23
2019-02-02T04:35:13.625Z,976.18
2019-02-02T04:36:34.631Z,976.16
2019-02-02T04:37:13.609Z,976.15
2019-02-02T04:38:13.605Z,976.15
2019-02-02T04:39:13.588Z,976.18
2019-02-02T04:40:14.524Z,976.17
2019-02-02T04:41:13.560Z,976.17
2019-02-02T04:42:34.556Z,976.19
2019-02-02T04:43:13.541Z,976.19
2019-02-02T04:44:13.540Z,976.22
2019-02-02T04:45:13.532Z,976.24
2019-02-02T04:46:13.523Z,976.27
2019-02-02T04:47:13.501Z,976.28
2019-02-02T04:48:34.501Z,976.29
2019-02-02T04:49:13.479Z,976.28
2019-02-02T04:50:13.477Z,976.32
2019-02-02T04:51:13.455Z,976.37
2019-02-02T04:52:13.453Z,976.38
2019-02-02T04:53:13.446Z,976.40
2019-02-02T04:54:34.449Z,976.47
2019-02-02T04:55:13.416Z,976.40
2019-02-02T04:56:13.408Z,976.46
2019-02-02T04:57:13.396Z,976.43
2019-02-02T04:58:13.384Z,976.45
2019-02-02T04:59:13.375Z,976.40
2019-02-02T05:00:34.376Z,976.47
2019-02-02T05:01:13.354Z,976.44
2019-02-02T05:02:13.361Z,976.43
2019-02-02T05:03:13.397Z,976.43
2019-02-02T05:04:13.319Z,976.44
2019-02-02T05:05:13.311Z,976.39
2019-02-02T05:06:34.319Z,976.45
2019-02-02T05:07:13.292Z,976.46
2019-02-02T05:08:13.281Z,976.41
2019-02-02T05:09:13.274Z,976.41
2019-02-02T05:10:13.270Z,976.35
2019-02-02T05:11:13.248Z,976.39
2019-02-02T05:12:34.238Z,976.43
2019-02-02T05:13:13.220Z,976.41
2019-02-02T05:14:13.212Z,976.50
2019-02-02T05:15:13.202Z,976.54
2019-02-02T05:16:13.190Z,976.49
2019-02-02T05:17:13.181Z,976.48
2019-02-02T05:18:34.178Z,976.47
2019-02-02T05:19:13.157Z,976.45
2019-02-02T05:20:13.146Z,976.49
2019-02-02T05:21:13.139Z,976.51
2019-02-02T05:22:13.124Z,976.53
2019-02-02T05:23:13.113Z,976.53
2019-02-02T05:24:34.116Z,976.56
2019-02-02T05:25:13.093Z,976.51
2019-02-02T05:26:13.097Z,976.52
2019-02-02T05:27:13.069Z,976.49
2019-02-02T05:28:13.064Z,976.48
2019-02-02T05:29:13.062Z,976.44
2019-02-02T05:30:34.057Z,976.43
2019-02-02T05:31:13.031Z,976.42
2019-02-02T05:32:13.016Z,976.44
2019-02-02T05:33:13.015Z,976.49
2019-02-02T05:34:13.001Z,976.51
2019-02-02T05:35:12.988Z,976.46
2019-02-02T05:36:33.976Z,976.53
2019-02-02T05:37:12.970Z,976.53
2019-02-02T05:38:12.957Z,976.55
2019-02-02T05:39:12.944Z,976.59
2019-02-02T05:40:12.927Z,976.61
2019-02-02T05:41:13.293Z,976.64
2019-02-02T05:42:33.909Z,976.67
2019-02-02T05:43:12.897Z,976.69
2019-02-02T05:44:12.896Z,976.71
2019-02-02T05:45:12.896Z,976.73
2019-02-02T05:46:12.869Z,976.74
2019-02-02T05:47:12.859Z,976.73
2019-02-02T05:48:33.862Z,976.77
2019-02-02T05:49:12.840Z,976.73
2019-02-02T05:50:12.832Z,976.70
2019-02-02T05:51:12.816Z,976.67
2019-02-02T05:52:12.803Z,976.59
2019-02-02T05:53:12.789Z,976.58
2019-02-02T05:54:33.781Z,976.51
2019-02-02T05:55:12.772Z,976.45
2019-02-02T05:56:12.761Z,976.41
2019-02-02T05:57:12.767Z,976.40
2019-02-02T05:58:12.742Z,976.39
2019-02-02T05:59:12.727Z,976.42
2019-02-02T06:00:33.718Z,976.45
2019-02-02T06:01:12.705Z,976.47
2019-02-02T06:02:12.692Z,976.51
2019-02-02T06:03:12.697Z,976.57
2019-02-02T06:04:12.668Z,976.64
2019-02-02T06:05:12.661Z,976.74
2019-02-02T06:06:33.661Z,976.81
2019-02-02T06:07:12.637Z,976.80
2019-02-02T06:08:12.627Z,976.82
2019-02-02T06:09:12.614Z,976.85
2019-02-02T06:10:12.612Z,976.86
2019-02-02T06:11:12.597Z,976.89
2019-02-02T06:12:33.588Z,976.85
2019-02-02T06:13:12.584Z,976.85
2019-02-02T06:14:12.561Z,976.84
2019-02-02T06:15:12.564Z,976.82
2019-02-02T06:16:12.547Z,976.85
2019-02-02T06:17:12.551Z,976.90
2019-02-02T06:18:33.526Z,976.90
2019-02-02T06:19:12.510Z,976.87
2019-02-02T06:20:12.503Z,976.88
2019-02-02T06:21:12.491Z,976.89
2019-02-02T06:22:12.485Z,976.91
2019-02-02T06:23:12.468Z,976.91
2019-02-02T06:24:33.459Z,976.97
2019-02-02T06:25:12.460Z,976.98
2019-02-02T06:26:12.437Z,977.02
2019-02-02T06:27:12.422Z,976.99
2019-02-02T06:28:12.422Z,977.00
2019-02-02T06:29:12.399Z,977.08
2019-02-02T06:30:33.394Z,977.03
2019-02-02T06:31:12.382Z,977.00
2019-02-02T06:32:12.413Z,977.00
2019-02-02T06:33:12.359Z,977.01
2019-02-02T06:34:12.340Z,976.99
2019-02-02T06:35:12.335Z,976.96
2019-02-02T06:36:33.330Z,976.99
2019-02-02T06:37:12.311Z,976.98
2019-02-02T06:38:12.309Z,977.01
2019-02-02T06:39:12.295Z,977.04
2019-02-02T06:40:12.286Z,977.13
2019-02-02T06:41:12.270Z,977.19
2019-02-02T06:42:33.263Z,977.19
2019-02-02T06:43:12.295Z,977.19
2019-02-02T06:44:12.239Z,977.20
2019-02-02T06:45:12.224Z,977.21
2019-02-02T06:46:12.211Z,977.26
2019-02-02T06:47:12.206Z,977.26
2019-02-02T06:48:33.205Z,977.24
2019-02-02T06:49:12.181Z,977.23
2019-02-02T06:50:12.172Z,977.22
2019-02-02T06:51:12.166Z,977.14
2019-02-02T06:52:12.154Z,977.13
2019-02-02T06:53:12.142Z,977.15
2019-02-02T06:54:33.944Z,977.17
2019-02-02T06:55:12.127Z,977.23
2019-02-02T06:56:12.110Z,977.24
2019-02-02T06:57:12.097Z,977.28
2019-02-02T06:58:12.093Z,977.27
2019-02-02T06:59:12.077Z,977.28
2019-02-02T07:00:33.094Z,977.27
2019-02-02T07:01:12.051Z,977.27
2019-02-02T07:02:12.051Z,977.26
2019-02-02T07:03:12.039Z,977.28
2019-02-02T07:04:12.028Z,977.27
2019-02-02T07:05:12.017Z,977.25
2019-02-02T07:06:33.008Z,977.25
2019-02-02T07:07:11.993Z,977.22
2019-02-02T07:08:11.988Z,977.31
2019-02-02T07:09:12.044Z,977.34
2019-02-02T07:10:11.972Z,977.42
2019-02-02T07:11:11.953Z,977.43
2019-02-02T07:12:32.944Z,977.44
2019-02-02T07:13:12.452Z,977.40
2019-02-02T07:14:11.944Z,977.34
2019-02-02T07:15:11.907Z,977.32
2019-02-02T07:16:11.901Z,977.37
2019-02-02T07:17:11.892Z,977.38
2019-02-02T07:18:32.887Z,977.40
2019-02-02T07:19:11.866Z,977.44
2019-02-02T07:20:11.867Z,977.46
2019-02-02T07:21:11.861Z,977.50
2019-02-02T07:22:11.955Z,977.50
2019-02-02T07:23:11.821Z,977.53
2019-02-02T07:24:32.820Z,977.52
2019-02-02T07:25:11.810Z,977.48
2019-02-02T07:26:11.795Z,977.50
2019-02-02T07:27:11.788Z,977.42
2019-02-02T07:28:11.780Z,977.43
2019-02-02T07:29:11.760Z,977.41
2019-02-02T07:30:32.775Z,977.43
2019-02-02T07:31:13.245Z,977.47
2019-02-02T07:32:11.742Z,977.53
2019-02-02T07:33:11.714Z,977.58
2019-02-02T07:34:11.715Z,977.60
2019-02-02T07:35:11.699Z,977.66
2019-02-02T07:36:32.689Z,977.71
2019-02-02T07:37:11.675Z,977.76
2019-02-02T07:38:11.668Z,977.76
2019-02-02T07:39:11.674Z,977.80
2019-02-02T07:40:11.653Z,977.81
2019-02-02T07:41:11.635Z,977.83
2019-02-02T07:42:32.634Z,977.83
2019-02-02T07:43:11.612Z,977.84
2019-02-02T07:44:11.599Z,977.86
2019-02-02T07:45:11.597Z,977.87
2019-02-02T07:46:14.932Z,977.88
2019-02-02T07:47:11.569Z,977.94
2019-02-02T07:48:32.565Z,977.99
2019-02-02T07:49:11.551Z,978.00
2019-02-02T07:50:11.549Z,978.00
2019-02-02T07:51:11.532Z,977.98
2019-02-02T07:52:11.566Z,978.02
2019-02-02T07:53:11.505Z,978.03
2019-02-02T07:54:33.235Z,978.05
2019-02-02T07:55:11.489Z,978.05
2019-02-02T07:56:11.486Z,978.09
2019-02-02T07:57:11.481Z,978.08
2019-02-02T07:58:11.459Z,978.09
2019-02-02T07:59:11.445Z,978.14
2019-02-02T08:00:40.194Z,978.16
2019-02-02T08:01:11.425Z,978.19
2019-02-02T08:02:11.420Z,978.22
2019-02-02T08:03:11.402Z,978.26
2019-02-02T08:04:11.391Z,978.31
2019-02-02T08:05:11.383Z,978.40
2019-02-02T08:06:32.387Z,978.42
2019-02-02T08:07:11.363Z,978.42
2019-02-02T08:08:11.351Z,978.46
2019-02-02T08:09:11.345Z,978.46
2019-02-02T08:10:11.330Z,978.52
2019-02-02T08:11:11.317Z,978.57
2019-02-02T08:12:32.323Z,978.51
2019-02-02T08:13:11.314Z,978.57
2019-02-02T08:14:11.598Z,978.56
2019-02-02T08:15:11.270Z,978.62
2019-02-02T08:16:11.269Z,978.60
2019-02-02T08:17:11.258Z,978.61
2019-02-02T08:18:32.255Z,978.64
2019-02-02T08:19:11.239Z,978.68
2019-02-02T08:20:11.286Z,978.71
2019-02-02T08:21:11.231Z,978.69
2019-02-02T08:22:11.201Z,978.70
2019-02-02T08:23:11.224Z,978.70
2019-02-02T08:24:32.194Z,978.65
2019-02-02T08:25:11.189Z,978.62
2019-02-02T08:26:11.156Z,978.62
2019-02-02T08:27:11.157Z,978.58
2019-02-02T08:28:11.146Z,978.50
2019-02-02T08:29:11.139Z,978.50
2019-02-02T08:30:35.103Z,978.50
2019-02-02T08:31:11.117Z,978.51
2019-02-02T08:32:11.103Z,978.49
2019-02-02T08:33:11.099Z,978.45
2019-02-02T08:34:11.082Z,978.44
2019-02-02T08:35:11.072Z,978.48
2019-02-02T08:36:32.076Z,978.49
2019-02-02T08:37:11.055Z,978.50
2019-02-02T08:38:11.304Z,978.52
2019-02-02T08:39:11.048Z,978.47
2019-02-02T08:40:11.019Z,978.47
2019-02-02T08:41:11.014Z,978.49
2019-02-02T08:42:32.002Z,978.52
2019-02-02T08:43:11.028Z,978.55
2019-02-02T08:44:11.002Z,978.54
2019-02-02T08:45:11.662Z,978.55
2019-02-02T08:46:10.954Z,978.51
2019-02-02T08:47:10.945Z,978.50
2019-02-02T08:48:31.936Z,978.51
2019-02-02T08:49:10.926Z,978.48
2019-02-02T08:50:12.748Z,978.48
2019-02-02T08:51:10.922Z,978.46
2019-02-02T08:52:10.927Z,978.50
2019-02-02T08:53:10.984Z,978.56
2019-02-02T08:54:31.887Z,978.55
2019-02-02T08:55:10.878Z,978.59
2019-02-02T08:56:10.860Z,978.56
2019-02-02T08:57:10.952Z,978.61
2019-02-02T08:58:10.938Z,978.60
2019-02-02T08:59:10.827Z,978.63
2019-02-02T09:00:31.825Z,978.65
2019-02-02T09:01:10.808Z,978.74
2019-02-02T09:02:10.784Z,978.76
2019-02-02T09:03:10.838Z,978.82
2019-02-02T09:04:10.774Z,978.87
2019-02-02T09:05:10.828Z,978.94
2019-02-02T09:06:38.657Z,978.95
2019-02-02T09:07:10.744Z,978.95
2019-02-02T09:08:10.722Z,978.98
2019-02-02T09:09:10.715Z,978.97
2019-02-02T09:10:10.708Z,978.92
2019-02-02T09:11:10.696Z,978.89
2019-02-02T09:12:31.691Z,978.91
2019-02-02T09:13:10.675Z,978.86
2019-02-02T09:14:10.675Z,978.91
2019-02-02T09:15:10.673Z,978.89
2019-02-02T09:16:10.653Z,978.88
2019-02-02T09:17:10.639Z,978.91
2019-02-02T09:18:31.644Z,978.98
2019-02-02T09:19:10.623Z,978.99
2019-02-02T09:20:10.612Z,979.04
2019-02-02T09:21:10.597Z,979.05
2019-02-02T09:22:10.601Z,979.02
2019-02-02T09:23:10.582Z,979.01
2019-02-02T09:24:31.573Z,979.01
2019-02-02T09:25:10.554Z,979.03
2019-02-02T09:26:10.550Z,979.03
2019-02-02T09:27:10.576Z,979.09
2019-02-02T09:28:10.529Z,979.04
2019-02-02T09:29:10.589Z,979.10
2019-02-02T09:30:31.525Z,979.05
2019-02-02T09:31:15.984Z,979.11
2019-02-02T09:32:10.490Z,979.09
2019-02-02T09:33:10.491Z,979.04
2019-02-02T09:34:10.492Z,979.03
2019-02-02T09:35:10.462Z,979.04
2019-02-02T09:36:31.457Z,979.03
2019-02-02T09:37:10.436Z,979.05
2019-02-02T09:38:12.255Z,979.02
2019-02-02T09:39:10.458Z,979.01
2019-02-02T09:40:10.410Z,978.99
2019-02-02T09:41:10.400Z,978.96
2019-02-02T09:42:31.400Z,978.94
2019-02-02T09:43:10.399Z,978.91
2019-02-02T09:44:10.592Z,978.93
2019-02-02T09:45:11.279Z,978.98
2019-02-02T09:46:12.460Z,979.00
2019-02-02T09:47:13.744Z,979.00
2019-02-02T09:48:33.838Z,979.04
2019-02-02T09:49:12.005Z,979.04
2019-02-02T09:50:10.317Z,979.03
2019-02-02T09:51:10.334Z,979.01
2019-02-02T09:52:11.409Z,979.05
2019-02-02T09:53:10.497Z,979.05
2019-02-02T09:54:33.442Z,979.07
2019-02-02T09:55:12.266Z,979.08
2019-02-02T09:56:10.255Z,979.06
2019-02-02T09:57:10.238Z,979.09
2019-02-02T09:58:10.225Z,979.07
2019-02-02T09:59:10.233Z,979.06
2019-02-02T10:00:31.212Z,979.06
2019-02-02T10:01:10.201Z,979.07
2019-02-02T10:02:10.212Z,979.05
2019-02-02T10:03:10.183Z,979.09
2019-02-02T10:04:10.181Z,979.09
2019-02-02T10:05:10.161Z,979.10
2019-02-02T10:06:31.156Z,979.09
2019-02-02T10:07:10.165Z,978.99
2019-02-02T10:08:10.142Z,979.01
2019-02-02T10:09:10.134Z,978.98
2019-02-02T10:10:10.130Z,978.97
2019-02-02T10:11:10.108Z,978.96
2019-02-02T10:12:31.098Z,978.93
2019-02-02T10:13:10.098Z,978.96
2019-02-02T10:14:10.074Z,978.96
2019-02-02T10:15:10.076Z,978.94
2019-02-02T10:16:10.067Z,978.96
2019-02-02T10:17:10.818Z,978.99
2019-02-02T10:18:31.048Z,979.06
2019-02-02T10:19:10.027Z,979.05
2019-02-02T10:20:10.026Z,979.09
2019-02-02T10:21:10.023Z,979.06
2019-02-02T10:22:10.003Z,979.06
2019-02-02T10:23:09.986Z,979.07
2019-02-02T10:24:30.990Z,979.09
2019-02-02T10:25:09.979Z,979.08
2019-02-02T10:26:09.969Z,979.16
2019-02-02T10:27:09.973Z,979.22
2019-02-02T10:28:10.854Z,979.26
2019-02-02T10:29:10.414Z,979.30
2019-02-02T10:30:30.938Z,979.35
2019-02-02T10:31:09.919Z,979.35
2019-02-02T10:32:09.908Z,979.36
2019-02-02T10:33:09.902Z,979.34
2019-02-02T10:34:12.395Z,979.37
2019-02-02T10:35:09.893Z,979.40
2019-02-02T10:36:30.879Z,979.44
2019-02-02T10:37:09.861Z,979.44
2019-02-02T10:38:09.859Z,979.42
2019-02-02T10:39:09.850Z,979.45
2019-02-02T10:40:09.843Z,979.47
2019-02-02T10:41:09.826Z,979.46
2019-02-02T10:42:30.830Z,979.44
2019-02-02T10:43:09.809Z,979.42
2019-02-02T10:44:09.809Z,979.47
2019-02-02T10:45:09.794Z,979.46
2019-02-02T10:46:10.827Z,979.49
2019-02-02T10:47:09.771Z,979.45
2019-02-02T10:48:30.771Z,979.40
2019-02-02T10:49:09.754Z,979.42
2019-02-02T10:50:09.749Z,979.40
2019-02-02T10:51:09.747Z,979.40
2019-02-02T10:52:09.733Z,979.43
2019-02-02T10:53:09.717Z,979.46
2019-02-02T10:54:30.728Z,979.50
2019-02-02T10:55:10.735Z,979.50
2019-02-02T10:56:09.731Z,979.50
2019-02-02T10:57:09.696Z,979.52
2019-02-02T10:58:09.681Z,979.43
2019-02-02T10:59:09.665Z,979.43
2019-02-02T11:00:30.662Z,979.44
2019-02-02T11:01:09.659Z,979.42
2019-02-02T11:02:09.639Z,979.39
2019-02-02T11:03:09.637Z,979.41
2019-02-02T11:04:09.675Z,979.39
2019-02-02T11:05:09.680Z,979.34
2019-02-02T11:06:30.777Z,979.32
2019-02-02T11:07:09.651Z,979.34
2019-02-02T11:08:09.607Z,979.31
2019-02-02T11:09:09.641Z,979.25
2019-02-02T11:10:09.630Z,979.25
2019-02-02T11:11:09.745Z,979.24
2019-02-02T11:12:30.562Z,979.27
2019-02-02T11:13:09.561Z,979.29
2019-02-02T11:14:09.549Z,979.32
2019-02-02T11:15:09.706Z,979.32
2019-02-02T11:16:09.815Z,979.31
2019-02-02T11:17:09.654Z,979.37
2019-02-02T11:18:30.561Z,979.34
2019-02-02T11:19:09.793Z,979.35
2019-02-02T11:20:09.475Z,979.35
2019-02-02T11:21:09.477Z,979.36
2019-02-02T11:22:09.846Z,979.36
2019-02-02T11:23:09.583Z,979.38
2019-02-02T11:24:30.650Z,979.37
2019-02-02T11:25:11.403Z,979.38
2019-02-02T11:26:09.513Z,979.35
2019-02-02T11:27:12.250Z,979.34
2019-02-02T11:28:09.582Z,979.36
2019-02-02T11:29:09.464Z,979.37
2019-02-02T11:30:30.548Z,979.40
2019-02-02T11:31:09.390Z,979.41
2019-02-02T11:32:09.399Z,979.40
2019-02-02T11:33:09.360Z,979.48
2019-02-02T11:34:09.430Z,979.49
2019-02-02T11:35:09.360Z,979.51
2019-02-02T11:36:30.347Z,979.51
2019-02-02T11:37:09.338Z,979.51
2019-02-02T11:38:09.332Z,979.56
2019-02-02T11:39:09.330Z,979.60
2019-02-02T11:40:09.314Z,979.67
2019-02-02T11:41:09.327Z,979.68
2019-02-02T11:42:30.302Z,979.67
2019-02-02T11:43:09.281Z,979.68
2019-02-02T11:44:10.186Z,979.68
2019-02-02T11:45:09.262Z,979.69
2019-02-02T11:46:09.252Z,979.72
2019-02-02T11:47:09.282Z,979.67
2019-02-02T11:48:30.244Z,979.69
2019-02-02T11:49:10.006Z,979.71
2019-02-02T11:50:09.225Z,979.67
2019-02-02T11:51:09.259Z,979.72
2019-02-02T11:52:09.212Z,979.72
2019-02-02T11:53:09.376Z,979.73
2019-02-02T11:54:30.430Z,979.74
2019-02-02T11:55:09.172Z,979.75
2019-02-02T11:56:09.278Z,979.73
2019-02-02T11:57:09.170Z,979.73
2019-02-02T11:58:09.162Z,979.76
2019-02-02T11:59:09.219Z,979.75
2019-02-02T12:00:30.141Z,979.69
2019-02-02T12:01:09.144Z,979.69
2019-02-02T12:02:14.425Z,979.70
2019-02-02T12:03:09.118Z,979.71
2019-02-02T12:04:09.133Z,979.72
2019-02-02T12:05:09.101Z,979.73
2019-02-02T12:06:30.093Z,979.74
2019-02-02T12:07:09.127Z,979.73
2019-02-02T12:08:09.347Z,979.67
2019-02-02T12:09:09.092Z,979.65
2019-02-02T12:10:09.050Z,979.69
2019-02-02T12:11:09.041Z,979.66
2019-02-02T12:12:30.065Z,979.70
2019-02-02T12:13:09.031Z,979.69
2019-02-02T12:14:09.013Z,979.70
2019-02-02T12:15:09.003Z,979.67
2019-02-02T12:16:09.608Z,979.72
2019-02-02T12:17:09.838Z,979.75
2019-02-02T12:18:30.008Z,979.75
2019-02-02T12:19:08.967Z,979.75
2019-02-02T12:20:08.961Z,979.81
2019-02-02T12:21:08.967Z,979.84
2019-02-02T12:22:09.034Z,979.87
2019-02-02T12:23:08.943Z,979.87
2019-02-02T12:24:29.949Z,979.92
2019-02-02T12:25:08.978Z,979.97
2019-02-02T12:26:08.910Z,980.03
2019-02-02T12:27:08.899Z,980.03
2019-02-02T12:28:09.234Z,980.10